Terminal Aerodrome Forecast
Issued by NWS Lubbock, TX

Home | Current Version | Previous Version | Text Only | Print | Product List | Glossary On
Versions: 1 2 3 4 5 6 7 8 9 10 11 12 13 14 15 16
311
FTUS44 KLUB 071929 AAA
TAFLBB
TAF AMD
KLBB 071929Z 0719/0818 02007KT P6SM BKN012 BKN200
     FM072200 04013KT P6SM BKN020 BKN200
     FM080300 04018G28KT P6SM BKN015=

USA.gov is the U.S. government's official web portal to all federal, state and local government web resources and services.